sensor_id;sensor_type;location;lat;lon;timestamp;P1;durP1;ratioP1;P2;durP2;ratioP2
44824;SDS011;30542;47.928;2.138;2022-12-29T00:02:20;1.92;;;0.35;;
44824;SDS011;30542;47.928;2.138;2022-12-29T00:07:21;0.73;;;0.27;;
44824;SDS011;30542;47.928;2.138;2022-12-29T00:12:21;0.83;;;0.30;;
44824;SDS011;30542;47.928;2.138;2022-12-29T00:17:21;0.40;;;0.32;;
44824;SDS011;30542;47.928;2.138;2022-12-29T00:22:22;1.00;;;0.30;;
44824;SDS011;30542;47.928;2.138;2022-12-29T00:27:41;0.75;;;0.30;;
44824;SDS011;30542;47.928;2.138;2022-12-29T00:33:00;0.90;;;0.30;;
44824;SDS011;30542;47.928;2.138;2022-12-29T00:38:19;0.68;;;0.35;;
44824;SDS011;30542;47.928;2.138;2022-12-29T00:43:39;0.82;;;0.35;;
44824;SDS011;30542;47.928;2.138;2022-12-29T00:48:59;0.70;;;0.30;;
44824;SDS011;30542;47.928;2.138;2022-12-29T00:54:18;0.85;;;0.38;;
44824;SDS011;30542;47.928;2.138;2022-12-29T00:59:19;0.60;;;0.20;;
44824;SDS011;30542;47.928;2.138;2022-12-29T01:04:24;1.00;;;0.40;;
44824;SDS011;30542;47.928;2.138;2022-12-29T01:09:25;0.38;;;0.30;;
44824;SDS011;30542;47.928;2.138;2022-12-29T01:14:44;0.22;;;0.22;;
44824;SDS011;30542;47.928;2.138;2022-12-29T01:19:45;0.30;;;0.20;;
44824;SDS011;30542;47.928;2.138;2022-12-29T01:24:45;0.80;;;0.33;;
44824;SDS011;30542;47.928;2.138;2022-12-29T01:29:45;0.83;;;0.20;;
44824;SDS011;30542;47.928;2.138;2022-12-29T01:34:46;0.20;;;0.20;;
44824;SDS011;30542;47.928;2.138;2022-12-29T01:39:46;1.23;;;0.20;;
44824;SDS011;30542;47.928;2.138;2022-12-29T01:49:54;0.60;;;0.22;;
44824;SDS011;30542;47.928;2.138;2022-12-29T01:54:57;0.57;;;0.22;;
44824;SDS011;30542;47.928;2.138;2022-12-29T02:00:04;0.40;;;0.30;;
44824;SDS011;30542;47.928;2.138;2022-12-29T02:05:14;0.38;;;0.20;;
44824;SDS011;30542;47.928;2.138;2022-12-29T02:10:32;0.40;;;0.30;;
44824;SDS011;30542;47.928;2.138;2022-12-29T02:22:00;0.57;;;0.30;;
44824;SDS011;30542;47.928;2.138;2022-12-29T02:38:07;0.65;;;0.20;;
44824;SDS011;30542;47.928;2.138;2022-12-29T02:43:24;0.20;;;0.20;;
44824;SDS011;30542;47.928;2.138;2022-12-29T02:53:37;0.28;;;0.20;;
44824;SDS011;30542;47.928;2.138;2022-12-29T02:58:57;0.50;;;0.30;;
44824;SDS011;30542;47.928;2.138;2022-12-29T03:04:20;1.50;;;0.30;;
44824;SDS011;30542;47.928;2.138;2022-12-29T03:09:28;0.38;;;0.20;;
44824;SDS011;30542;47.928;2.138;2022-12-29T03:14:44;1.15;;;0.20;;
44824;SDS011;30542;47.928;2.138;2022-12-29T03:20:17;0.88;;;0.20;;
44824;SDS011;30542;47.928;2.138;2022-12-29T03:25:28;0.98;;;0.20;;
44824;SDS011;30542;47.928;2.138;2022-12-29T03:30:35;0.38;;;0.20;;
44824;SDS011;30542;47.928;2.138;2022-12-29T03:35:39;0.35;;;0.20;;
44824;SDS011;30542;47.928;2.138;2022-12-29T03:40:43;0.50;;;0.20;;
44824;SDS011;30542;47.928;2.138;2022-12-29T03:45:46;0.63;;;0.13;;
44824;SDS011;30542;47.928;2.138;2022-12-29T03:50:46;0.43;;;0.20;;
44824;SDS011;30542;47.928;2.138;2022-12-29T03:55:47;0.30;;;0.20;;
44824;SDS011;30542;47.928;2.138;2022-12-29T04:00:47;0.33;;;0.20;;
44824;SDS011;30542;47.928;2.138;2022-12-29T04:05:47;1.03;;;0.20;;
44824;SDS011;30542;47.928;2.138;2022-12-29T04:10:48;1.17;;;0.30;;
44824;SDS011;30542;47.928;2.138;2022-12-29T04:15:49;1.35;;;0.20;;
44824;SDS011;30542;47.928;2.138;2022-12-29T04:20:50;0.37;;;0.20;;
44824;SDS011;30542;47.928;2.138;2022-12-29T04:26:06;0.93;;;0.30;;
44824;SDS011;30542;47.928;2.138;2022-12-29T04:31:07;0.93;;;0.20;;
44824;SDS011;30542;47.928;2.138;2022-12-29T04:36:08;0.50;;;0.20;;
44824;SDS011;30542;47.928;2.138;2022-12-29T04:41:09;0.43;;;0.17;;
44824;SDS011;30542;47.928;2.138;2022-12-29T04:46:10;0.40;;;0.13;;
44824;SDS011;30542;47.928;2.138;2022-12-29T04:51:10;0.60;;;0.20;;
44824;SDS011;30542;47.928;2.138;2022-12-29T04:56:10;0.30;;;0.20;;
44824;SDS011;30542;47.928;2.138;2022-12-29T05:01:11;0.43;;;0.20;;
44824;SDS011;30542;47.928;2.138;2022-12-29T05:06:11;0.37;;;0.10;;
44824;SDS011;30542;47.928;2.138;2022-12-29T05:11:12;0.20;;;0.17;;
44824;SDS011;30542;47.928;2.138;2022-12-29T05:16:12;0.57;;;0.20;;
44824;SDS011;30542;47.928;2.138;2022-12-29T05:21:13;0.90;;;0.10;;
44824;SDS011;30542;47.928;2.138;2022-12-29T05:26:13;2.77;;;0.40;;
44824;SDS011;30542;47.928;2.138;2022-12-29T05:31:13;1.30;;;0.40;;
44824;SDS011;30542;47.928;2.138;2022-12-29T05:36:14;3.03;;;0.60;;
44824;SDS011;30542;47.928;2.138;2022-12-29T05:41:14;2.07;;;0.70;;
44824;SDS011;30542;47.928;2.138;2022-12-29T05:46:14;2.77;;;0.50;;
44824;SDS011;30542;47.928;2.138;2022-12-29T05:51:15;2.13;;;0.40;;
44824;SDS011;30542;47.928;2.138;2022-12-29T05:56:15;3.03;;;0.70;;
44824;SDS011;30542;47.928;2.138;2022-12-29T06:01:16;3.53;;;0.50;;
44824;SDS011;30542;47.928;2.138;2022-12-29T06:06:16;3.00;;;0.60;;
44824;SDS011;30542;47.928;2.138;2022-12-29T06:11:17;1.88;;;0.50;;
44824;SDS011;30542;47.928;2.138;2022-12-29T06:16:18;4.00;;;0.83;;
44824;SDS011;30542;47.928;2.138;2022-12-29T06:21:18;14.73;;;3.40;;
44824;SDS011;30542;47.928;2.138;2022-12-29T06:26:18;14.50;;;3.10;;
44824;SDS011;30542;47.928;2.138;2022-12-29T06:31:19;12.90;;;2.70;;
44824;SDS011;30542;47.928;2.138;2022-12-29T06:36:19;7.87;;;2.60;;
44824;SDS011;30542;47.928;2.138;2022-12-29T06:41:20;10.87;;;2.77;;
44824;SDS011;30542;47.928;2.138;2022-12-29T06:46:21;12.13;;;2.70;;
44824;SDS011;30542;47.928;2.138;2022-12-29T06:51:21;10.20;;;1.97;;
44824;SDS011;30542;47.928;2.138;2022-12-29T06:56:21;8.63;;;2.00;;
44824;SDS011;30542;47.928;2.138;2022-12-29T07:01:22;9.80;;;2.03;;
44824;SDS011;30542;47.928;2.138;2022-12-29T07:06:23;7.65;;;1.75;;
44824;SDS011;30542;47.928;2.138;2022-12-29T07:11:23;4.32;;;1.30;;
44824;SDS011;30542;47.928;2.138;2022-12-29T07:16:24;6.45;;;1.70;;
44824;SDS011;30542;47.928;2.138;2022-12-29T07:21:24;5.70;;;1.30;;
44824;SDS011;30542;47.928;2.138;2022-12-29T07:26:25;5.30;;;1.52;;
44824;SDS011;30542;47.928;2.138;2022-12-29T07:31:25;5.50;;;1.58;;
44824;SDS011;30542;47.928;2.138;2022-12-29T07:36:26;6.00;;;1.47;;
44824;SDS011;30542;47.928;2.138;2022-12-29T07:41:26;5.00;;;1.40;;
44824;SDS011;30542;47.928;2.138;2022-12-29T07:46:26;2.83;;;1.20;;
44824;SDS011;30542;47.928;2.138;2022-12-29T07:51:27;5.80;;;1.33;;
44824;SDS011;30542;47.928;2.138;2022-12-29T07:56:27;4.23;;;0.97;;
44824;SDS011;30542;47.928;2.138;2022-12-29T08:01:28;5.07;;;1.30;;
44824;SDS011;30542;47.928;2.138;2022-12-29T08:06:28;7.03;;;1.63;;
44824;SDS011;30542;47.928;2.138;2022-12-29T08:11:30;5.10;;;1.40;;
44824;SDS011;30542;47.928;2.138;2022-12-29T08:16:31;3.90;;;0.80;;
44824;SDS011;30542;47.928;2.138;2022-12-29T08:21:32;4.35;;;0.90;;
44824;SDS011;30542;47.928;2.138;2022-12-29T08:26:32;2.80;;;1.07;;
44824;SDS011;30542;47.928;2.138;2022-12-29T08:31:33;4.03;;;1.10;;
44824;SDS011;30542;47.928;2.138;2022-12-29T08:36:33;4.20;;;1.20;;
44824;SDS011;30542;47.928;2.138;2022-12-29T08:41:33;3.73;;;1.00;;
44824;SDS011;30542;47.928;2.138;2022-12-29T08:46:34;3.70;;;0.70;;
44824;SDS011;30542;47.928;2.138;2022-12-29T08:51:34;2.33;;;0.60;;
44824;SDS011;30542;47.928;2.138;2022-12-29T08:56:35;2.47;;;0.80;;
44824;SDS011;30542;47.928;2.138;2022-12-29T09:01:35;2.53;;;0.73;;
44824;SDS011;30542;47.928;2.138;2022-12-29T09:06:36;3.05;;;0.60;;
44824;SDS011;30542;47.928;2.138;2022-12-29T09:11:36;3.77;;;0.90;;
44824;SDS011;30542;47.928;2.138;2022-12-29T09:16:37;2.42;;;0.82;;
44824;SDS011;30542;47.928;2.138;2022-12-29T09:21:38;2.45;;;0.75;;
44824;SDS011;30542;47.928;2.138;2022-12-29T09:26:38;3.38;;;0.90;;
44824;SDS011;30542;47.928;2.138;2022-12-29T09:31:39;3.17;;;0.70;;
44824;SDS011;30542;47.928;2.138;2022-12-29T09:36:39;4.37;;;0.60;;
44824;SDS011;30542;47.928;2.138;2022-12-29T09:41:43;2.35;;;0.80;;
44824;SDS011;30542;47.928;2.138;2022-12-29T09:46:50;3.33;;;0.90;;
44824;SDS011;30542;47.928;2.138;2022-12-29T09:51:55;4.20;;;0.75;;
44824;SDS011;30542;47.928;2.138;2022-12-29T09:57:00;3.83;;;0.80;;
44824;SDS011;30542;47.928;2.138;2022-12-29T10:02:04;3.80;;;0.98;;
44824;SDS011;30542;47.928;2.138;2022-12-29T10:13:27;2.17;;;0.50;;
44824;SDS011;30542;47.928;2.138;2022-12-29T10:24:25;2.60;;;0.68;;
44824;SDS011;30542;47.928;2.138;2022-12-29T10:29:29;2.67;;;0.60;;
44824;SDS011;30542;47.928;2.138;2022-12-29T10:34:37;1.63;;;0.40;;
44824;SDS011;30542;47.928;2.138;2022-12-29T10:39:45;1.95;;;0.47;;
44824;SDS011;30542;47.928;2.138;2022-12-29T10:44:50;1.70;;;0.52;;
44824;SDS011;30542;47.928;2.138;2022-12-29T10:49:51;1.25;;;0.40;;
44824;SDS011;30542;47.928;2.138;2022-12-29T10:55:00;1.98;;;0.50;;
44824;SDS011;30542;47.928;2.138;2022-12-29T11:00:16;2.10;;;0.60;;
44824;SDS011;30542;47.928;2.138;2022-12-29T11:15:40;1.27;;;0.20;;
44824;SDS011;30542;47.928;2.138;2022-12-29T11:20:45;2.40;;;0.70;;
44824;SDS011;30542;47.928;2.138;2022-12-29T11:25:45;1.02;;;0.30;;
44824;SDS011;30542;47.928;2.138;2022-12-29T11:30:49;1.70;;;0.70;;
44824;SDS011;30542;47.928;2.138;2022-12-29T11:36:04;5.05;;;0.80;;
44824;SDS011;30542;47.928;2.138;2022-12-29T11:41:10;3.40;;;0.82;;
44824;SDS011;30542;47.928;2.138;2022-12-29T11:46:17;4.88;;;0.95;;
44824;SDS011;30542;47.928;2.138;2022-12-29T11:51:21;3.42;;;0.98;;
44824;SDS011;30542;47.928;2.138;2022-12-29T11:56:33;5.70;;;1.00;;
44824;SDS011;30542;47.928;2.138;2022-12-29T12:06:43;5.32;;;0.68;;
44824;SDS011;30542;47.928;2.138;2022-12-29T12:11:46;2.55;;;0.60;;
44824;SDS011;30542;47.928;2.138;2022-12-29T12:17:02;4.70;;;0.88;;
44824;SDS011;30542;47.928;2.138;2022-12-29T12:22:13;2.67;;;0.60;;
44824;SDS011;30542;47.928;2.138;2022-12-29T12:32:29;2.58;;;0.55;;
44824;SDS011;30542;47.928;2.138;2022-12-29T12:37:41;2.88;;;0.60;;
44824;SDS011;30542;47.928;2.138;2022-12-29T12:43:03;2.78;;;0.57;;
44824;SDS011;30542;47.928;2.138;2022-12-29T12:58:53;2.30;;;0.63;;
44824;SDS011;30542;47.928;2.138;2022-12-29T13:30:20;2.63;;;0.57;;
44824;SDS011;30542;47.928;2.138;2022-12-29T13:40:32;2.13;;;0.70;;
44824;SDS011;30542;47.928;2.138;2022-12-29T13:45:38;2.30;;;0.60;;
44824;SDS011;30542;47.928;2.138;2022-12-29T13:50:40;4.35;;;0.77;;
44824;SDS011;30542;47.928;2.138;2022-12-29T14:01:15;3.40;;;0.60;;
44824;SDS011;30542;47.928;2.138;2022-12-29T14:06:22;3.28;;;0.50;;
44824;SDS011;30542;47.928;2.138;2022-12-29T14:11:29;2.92;;;0.70;;
44824;SDS011;30542;47.928;2.138;2022-12-29T14:16:33;2.25;;;0.50;;
44824;SDS011;30542;47.928;2.138;2022-12-29T14:21:34;4.18;;;0.98;;
44824;SDS011;30542;47.928;2.138;2022-12-29T14:26:35;3.15;;;0.63;;
44824;SDS011;30542;47.928;2.138;2022-12-29T14:31:36;3.50;;;0.55;;
44824;SDS011;30542;47.928;2.138;2022-12-29T14:47:06;1.52;;;0.50;;
44824;SDS011;30542;47.928;2.138;2022-12-29T15:02:45;3.47;;;0.60;;
44824;SDS011;30542;47.928;2.138;2022-12-29T15:07:49;1.80;;;0.70;;
44824;SDS011;30542;47.928;2.138;2022-12-29T15:12:53;2.05;;;0.57;;
44824;SDS011;30542;47.928;2.138;2022-12-29T15:17:54;3.80;;;0.70;;
44824;SDS011;30542;47.928;2.138;2022-12-29T15:22:56;4.80;;;0.90;;
44824;SDS011;30542;47.928;2.138;2022-12-29T15:28:01;3.40;;;0.80;;
44824;SDS011;30542;47.928;2.138;2022-12-29T15:33:16;3.63;;;0.68;;
44824;SDS011;30542;47.928;2.138;2022-12-29T15:38:22;6.55;;;1.15;;
44824;SDS011;30542;47.928;2.138;2022-12-29T15:48:44;3.65;;;1.38;;
44824;SDS011;30542;47.928;2.138;2022-12-29T15:53:48;4.38;;;1.48;;
44824;SDS011;30542;47.928;2.138;2022-12-29T15:58:51;3.47;;;0.90;;
44824;SDS011;30542;47.928;2.138;2022-12-29T16:03:52;5.60;;;0.82;;
44824;SDS011;30542;47.928;2.138;2022-12-29T16:08:56;2.50;;;0.80;;
44824;SDS011;30542;47.928;2.138;2022-12-29T16:14:00;3.25;;;1.20;;
44824;SDS011;30542;47.928;2.138;2022-12-29T16:19:03;3.10;;;0.80;;
44824;SDS011;30542;47.928;2.138;2022-12-29T16:24:13;4.72;;;1.20;;
44824;SDS011;30542;47.928;2.138;2022-12-29T16:29:26;3.60;;;1.35;;
44824;SDS011;30542;47.928;2.138;2022-12-29T16:34:33;3.38;;;1.38;;
44824;SDS011;30542;47.928;2.138;2022-12-29T16:39:43;4.45;;;1.20;;
44824;SDS011;30542;47.928;2.138;2022-12-29T16:44:43;6.40;;;1.00;;
44824;SDS011;30542;47.928;2.138;2022-12-29T16:49:46;5.43;;;1.35;;
44824;SDS011;30542;47.928;2.138;2022-12-29T16:54:54;3.70;;;0.95;;
44824;SDS011;30542;47.928;2.138;2022-12-29T17:00:00;5.72;;;1.48;;
44824;SDS011;30542;47.928;2.138;2022-12-29T17:05:03;6.72;;;1.40;;
44824;SDS011;30542;47.928;2.138;2022-12-29T17:10:04;5.68;;;1.10;;
44824;SDS011;30542;47.928;2.138;2022-12-29T17:15:06;4.07;;;1.23;;
44824;SDS011;30542;47.928;2.138;2022-12-29T17:20:15;2.20;;;0.80;;
44824;SDS011;30542;47.928;2.138;2022-12-29T17:25:18;4.95;;;1.27;;
44824;SDS011;30542;47.928;2.138;2022-12-29T17:30:23;2.15;;;0.90;;
44824;SDS011;30542;47.928;2.138;2022-12-29T17:35:25;3.72;;;1.10;;
44824;SDS011;30542;47.928;2.138;2022-12-29T17:40:28;4.32;;;1.30;;
44824;SDS011;30542;47.928;2.138;2022-12-29T17:45:31;4.55;;;1.33;;
44824;SDS011;30542;47.928;2.138;2022-12-29T17:50:32;2.90;;;1.00;;
44824;SDS011;30542;47.928;2.138;2022-12-29T17:55:33;3.58;;;1.10;;
44824;SDS011;30542;47.928;2.138;2022-12-29T18:00:36;7.68;;;1.20;;
44824;SDS011;30542;47.928;2.138;2022-12-29T18:05:37;6.93;;;0.80;;
44824;SDS011;30542;47.928;2.138;2022-12-29T18:10:37;4.30;;;0.82;;
44824;SDS011;30542;47.928;2.138;2022-12-29T18:15:38;3.38;;;1.00;;
44824;SDS011;30542;47.928;2.138;2022-12-29T18:20:57;4.50;;;0.80;;
44824;SDS011;30542;47.928;2.138;2022-12-29T18:26:00;5.55;;;1.13;;
44824;SDS011;30542;47.928;2.138;2022-12-29T18:31:02;3.38;;;0.77;;
44824;SDS011;30542;47.928;2.138;2022-12-29T18:36:03;3.23;;;0.60;;
44824;SDS011;30542;47.928;2.138;2022-12-29T18:41:04;4.65;;;0.98;;
44824;SDS011;30542;47.928;2.138;2022-12-29T18:46:05;3.05;;;0.80;;
44824;SDS011;30542;47.928;2.138;2022-12-29T18:51:06;2.70;;;0.90;;
44824;SDS011;30542;47.928;2.138;2022-12-29T18:56:14;2.20;;;0.63;;
44824;SDS011;30542;47.928;2.138;2022-12-29T19:01:19;3.13;;;0.77;;
44824;SDS011;30542;47.928;2.138;2022-12-29T19:06:21;2.45;;;0.77;;
44824;SDS011;30542;47.928;2.138;2022-12-29T19:11:21;2.97;;;0.90;;
44824;SDS011;30542;47.928;2.138;2022-12-29T19:16:23;3.08;;;0.65;;
44824;SDS011;30542;47.928;2.138;2022-12-29T19:21:26;2.33;;;0.60;;
44824;SDS011;30542;47.928;2.138;2022-12-29T19:26:30;3.73;;;0.80;;
44824;SDS011;30542;47.928;2.138;2022-12-29T19:31:36;1.45;;;0.52;;
44824;SDS011;30542;47.928;2.138;2022-12-29T19:36:37;3.22;;;0.60;;
44824;SDS011;30542;47.928;2.138;2022-12-29T19:41:38;2.70;;;0.70;;
44824;SDS011;30542;47.928;2.138;2022-12-29T19:46:38;1.30;;;0.50;;
44824;SDS011;30542;47.928;2.138;2022-12-29T19:51:39;2.43;;;0.87;;
44824;SDS011;30542;47.928;2.138;2022-12-29T19:56:39;2.70;;;0.97;;
44824;SDS011;30542;47.928;2.138;2022-12-29T20:01:41;1.80;;;0.73;;
44824;SDS011;30542;47.928;2.138;2022-12-29T20:06:42;3.30;;;0.60;;
44824;SDS011;30542;47.928;2.138;2022-12-29T20:11:42;3.03;;;0.90;;
44824;SDS011;30542;47.928;2.138;2022-12-29T20:16:43;3.60;;;0.80;;
44824;SDS011;30542;47.928;2.138;2022-12-29T20:21:43;3.20;;;0.80;;
44824;SDS011;30542;47.928;2.138;2022-12-29T20:26:43;2.00;;;0.55;;
44824;SDS011;30542;47.928;2.138;2022-12-29T20:31:44;2.78;;;0.80;;
44824;SDS011;30542;47.928;2.138;2022-12-29T20:36:46;3.00;;;0.70;;
44824;SDS011;30542;47.928;2.138;2022-12-29T20:41:47;3.33;;;0.73;;
44824;SDS011;30542;47.928;2.138;2022-12-29T20:46:48;2.50;;;0.55;;
44824;SDS011;30542;47.928;2.138;2022-12-29T20:51:48;2.78;;;0.88;;
44824;SDS011;30542;47.928;2.138;2022-12-29T20:56:49;4.15;;;0.77;;
44824;SDS011;30542;47.928;2.138;2022-12-29T21:01:51;1.98;;;0.70;;
44824;SDS011;30542;47.928;2.138;2022-12-29T21:06:51;3.07;;;0.60;;
44824;SDS011;30542;47.928;2.138;2022-12-29T21:11:52;2.58;;;0.60;;
44824;SDS011;30542;47.928;2.138;2022-12-29T21:16:52;2.87;;;0.77;;
44824;SDS011;30542;47.928;2.138;2022-12-29T21:21:53;1.73;;;0.60;;
44824;SDS011;30542;47.928;2.138;2022-12-29T21:26:53;3.13;;;0.77;;
44824;SDS011;30542;47.928;2.138;2022-12-29T21:31:53;2.20;;;0.87;;
44824;SDS011;30542;47.928;2.138;2022-12-29T21:36:54;4.37;;;1.43;;
44824;SDS011;30542;47.928;2.138;2022-12-29T21:41:54;2.38;;;0.80;;
44824;SDS011;30542;47.928;2.138;2022-12-29T21:46:58;3.35;;;1.00;;
44824;SDS011;30542;47.928;2.138;2022-12-29T21:51:59;2.20;;;0.75;;
44824;SDS011;30542;47.928;2.138;2022-12-29T21:56:59;2.17;;;0.80;;
44824;SDS011;30542;47.928;2.138;2022-12-29T22:02:01;2.63;;;0.70;;
44824;SDS011;30542;47.928;2.138;2022-12-29T22:07:21;1.95;;;0.63;;
44824;SDS011;30542;47.928;2.138;2022-12-29T22:12:40;1.15;;;0.70;;
44824;SDS011;30542;47.928;2.138;2022-12-29T22:17:59;3.58;;;0.93;;
44824;SDS011;30542;47.928;2.138;2022-12-29T22:23:00;2.72;;;0.90;;
44824;SDS011;30542;47.928;2.138;2022-12-29T22:28:01;3.80;;;0.88;;
44824;SDS011;30542;47.928;2.138;2022-12-29T22:33:02;4.00;;;1.20;;
44824;SDS011;30542;47.928;2.138;2022-12-29T22:38:02;4.45;;;1.05;;
44824;SDS011;30542;47.928;2.138;2022-12-29T22:43:03;1.40;;;0.80;;
44824;SDS011;30542;47.928;2.138;2022-12-29T22:48:03;2.23;;;0.60;;
44824;SDS011;30542;47.928;2.138;2022-12-29T22:53:04;2.45;;;0.77;;
44824;SDS011;30542;47.928;2.138;2022-12-29T22:58:05;3.70;;;0.90;;
44824;SDS011;30542;47.928;2.138;2022-12-29T23:03:05;2.20;;;0.70;;
44824;SDS011;30542;47.928;2.138;2022-12-29T23:08:06;2.97;;;0.57;;
44824;SDS011;30542;47.928;2.138;2022-12-29T23:13:06;3.13;;;0.73;;
44824;SDS011;30542;47.928;2.138;2022-12-29T23:18:07;3.53;;;0.98;;
44824;SDS011;30542;47.928;2.138;2022-12-29T23:23:07;2.50;;;0.70;;
44824;SDS011;30542;47.928;2.138;2022-12-29T23:28:08;3.58;;;0.80;;
44824;SDS011;30542;47.928;2.138;2022-12-29T23:33:08;4.03;;;1.00;;
44824;SDS011;30542;47.928;2.138;2022-12-29T23:38:09;3.10;;;0.90;;
44824;SDS011;30542;47.928;2.138;2022-12-29T23:43:09;2.43;;;0.90;;
44824;SDS011;30542;47.928;2.138;2022-12-29T23:48:09;3.07;;;0.93;;
44824;SDS011;30542;47.928;2.138;2022-12-29T23:53:10;2.90;;;0.77;;
44824;SDS011;30542;47.928;2.138;2022-12-29T23:58:11;1.80;;;0.50;;
